Terminal Aerodrome Forecast
Issued by NWS

Home | Current Version | Previous Version | Graphics & Text | Print | Product List | Glossary On
Versions: 1 2 3 4 5 6 7 8 9 10 11 12 13
000
FTUS42 KMHX 180300 AAB
TAFOAJ
TAF AMD
KOAJ 180331Z 1804/1824 25011G17KT P6SM BKN035
     FM180600 29010KT P6SM BKN060
     FM181400 32012G20KT P6SM SKC
      AMD LTD TO CLD VIS AND WIND=

USA.gov is the U.S. government's official web portal to all federal, state and local government web resources and services.